Time;durP1;ratioP1;P1;durP2;ratioP2;P2;SDS_P1;SDS_P2;PMS_P1;PMS_P2;Temp;Humidity;BMP_temperature;BMP_pressure;BME280_temperature;BME280_humidity;BME280_pressure;Samples;Min_cycle;Max_cycle;Signal;HPM_P1;HPM_P2
2023/12/30 00:02:24;;;;;;;;;;;26.00;97.60;;;;;;5113971;28;20013;-67
2023/12/30 00:04:51;;;;;;;;;;;26.10;96.90;;;;;;5113901;28;19942;-69
2023/12/30 00:07:17;;;;;;;;;;;26.20;97.00;;;;;;5114079;28;19907;-66
2023/12/30 00:09:44;;;;;;;;;;;26.40;97.20;;;;;;5112577;28;19915;-68
2023/12/30 00:12:11;;;;;;;;;;;26.50;97.10;;;;;;5093979;28;20332;-67
2023/12/30 00:14:37;;;;;;;;;;;26.60;96.20;;;;;;5093676;28;19914;-68
2023/12/30 00:17:04;;;;;;;;;;;26.50;96.20;;;;;;5112556;28;20324;-68
2023/12/30 00:19:34;;;;;;;;;;;26.70;96.90;;;;;;5114013;28;20375;-67
2023/12/30 00:22:01;;;;;;;;;;;26.70;96.20;;;;;;5104536;28;19959;-67
2023/12/30 00:24:28;;;;;;;;;;;26.70;96.10;;;;;;5093550;28;19916;-67
2023/12/30 00:26:54;;;;;;;;;;;26.70;96.10;;;;;;5093213;28;20001;-66
2023/12/30 00:29:21;;;;;;;;;;;26.90;96.30;;;;;;5097682;28;19955;-70
2023/12/30 00:31:48;;;;;;;;;;;27.00;96.60;;;;;;5113605;28;20360;-70
2023/12/30 00:34:14;;;;;;;;;;;27.20;96.60;;;;;;5113740;28;20395;-67
2023/12/30 00:36:44;;;;;;;;;;;27.20;97.10;;;;;;5095366;28;20390;-71
2023/12/30 00:39:11;;;;;;;;;;;27.30;96.60;;;;;;5113024;28;19929;-67
2023/12/30 00:41:38;;;;;;;;;;;27.30;96.90;;;;;;5110509;28;19911;-68
2023/12/30 00:44:04;;;;;;;;;;;27.20;96.90;;;;;;5093216;28;20007;-67
2023/12/30 00:46:31;;;;;;;;;;;27.00;97.50;;;;;;5093014;28;19999;-67
2023/12/30 00:48:58;;;;;;;;;;;27.00;97.90;;;;;;5093112;28;19912;-66
2023/12/30 00:51:24;;;;;;;;;;;27.10;97.20;;;;;;5093014;28;19908;-68
2023/12/30 00:53:51;;;;;;;;;;;27.20;97.20;;;;;;5092974;28;19912;-68
2023/12/30 00:56:18;;;;;;;;;;;27.50;96.90;;;;;;5093228;28;19916;-70
2023/12/30 00:58:49;;;;;;;;;;;27.70;97.00;;;;;;5093585;28;20299;-68
2023/12/30 01:01:16;;;;;;;;;;;27.90;96.50;;;;;;5099197;28;20368;-66
2023/12/30 01:03:42;;;;;;;;;;;27.90;95.90;;;;;;5100986;28;19935;-68
2023/12/30 01:06:09;;;;;;;;;;;28.20;96.50;;;;;;5104541;28;20002;-68
2023/12/30 01:08:35;;;;;;;;;;;28.10;95.90;;;;;;5113295;28;19908;-67
2023/12/30 01:11:03;;;;;;;;;;;28.20;96.00;;;;;;5113131;28;19915;-67
2023/12/30 01:13:30;;;;;;;;;;;28.20;95.20;;;;;;5113081;28;19961;-69
2023/12/30 01:15:57;;;;;;;;;;;28.10;95.80;;;;;;5112994;28;19923;-68
2023/12/30 01:18:24;;;;;;;;;;;28.10;95.10;;;;;;5113194;28;19908;-70
2023/12/30 01:20:51;;;;;;;;;;;28.20;95.40;;;;;;5110417;28;20325;-68
2023/12/30 01:23:18;;;;;;;;;;;28.10;94.90;;;;;;5105296;28;19908;-68
2023/12/30 01:25:45;;;;;;;;;;;28.10;95.70;;;;;;5102784;28;19915;-71
2023/12/30 01:28:11;;;;;;;;;;;28.20;95.70;;;;;;5113194;28;19915;-68
2023/12/30 01:30:38;;;;;;;;;;;28.30;95.50;;;;;;5102493;28;20262;-67
2023/12/30 01:33:05;;;;;;;;;;;28.50;95.10;;;;;;5092603;28;19908;-67
2023/12/30 01:35:32;;;;;;;;;;;28.50;95.00;;;;;;5092504;28;20010;-69
2023/12/30 01:37:58;;;;;;;;;;;28.70;95.10;;;;;;5092758;28;19986;-67
2023/12/30 01:40:26;;;;;;;;;;;28.70;94.70;;;;;;5092584;28;19914;-68
2023/12/30 01:42:53;;;;;;;;;;;28.80;94.30;;;;;;5092012;28;19951;-69
2023/12/30 01:45:19;;;;;;;;;;;28.90;94.10;;;;;;5105149;28;19908;-68
2023/12/30 01:47:46;;;;;;;;;;;29.10;94.40;;;;;;5112907;28;20383;-69
2023/12/30 01:50:13;;;;;;;;;;;29.20;93.80;;;;;;5102402;28;19998;-68
2023/12/30 01:52:40;;;;;;;;;;;29.20;93.10;;;;;;5096285;28;19908;-68
2023/12/30 01:55:07;;;;;;;;;;;29.20;93.70;;;;;;5105911;28;19920;-68
2023/12/30 01:57:33;;;;;;;;;;;29.40;92.90;;;;;;5100009;28;19924;-70
2023/12/30 02:00:01;;;;;;;;;;;29.40;92.60;;;;;;5096230;28;19908;-68
2023/12/30 02:02:28;;;;;;;;;;;29.40;92.30;;;;;;5095776;28;19908;-68
2023/12/30 02:04:55;;;;;;;;;;;29.40;93.40;;;;;;5095649;28;19908;-68
2023/12/30 02:07:22;;;;;;;;;;;29.40;92.40;;;;;;5096305;28;20595;-69
2023/12/30 02:09:49;;;;;;;;;;;29.50;92.50;;;;;;5116014;28;19911;-68
2023/12/30 02:12:15;;;;;;;;;;;29.60;92.80;;;;;;5106955;28;19930;-66
2023/12/30 02:14:42;;;;;;;;;;;29.80;92.60;;;;;;5115709;28;19915;-67
2023/12/30 02:17:08;;;;;;;;;;;29.90;91.60;;;;;;5104388;28;19920;-67
2023/12/30 02:19:35;;;;;;;;;;;30.00;91.20;;;;;;5106213;28;19916;-70
2023/12/30 02:22:02;;;;;;;;;;;29.90;91.80;;;;;;5103758;28;20383;-68
2023/12/30 02:24:29;;;;;;;;;;;29.90;91.00;;;;;;5107464;28;20383;-69
2023/12/30 02:26:55;;;;;;;;;;;30.00;90.50;;;;;;5106594;28;19947;-70
2023/12/30 02:29:22;;;;;;;;;;;30.00;91.00;;;;;;5103975;28;20349;-67
2023/12/30 02:31:49;;;;;;;;;;;30.00;90.60;;;;;;5101248;28;19995;-67
2023/12/30 02:34:16;;;;;;;;;;;30.00;90.60;;;;;;5114939;28;19953;-68
2023/12/30 02:36:43;;;;;;;;;;;29.90;91.10;;;;;;5115815;28;19924;-67
2023/12/30 02:39:09;;;;;;;;;;;30.10;90.10;;;;;;5115872;28;20007;-69
2023/12/30 02:41:36;;;;;;;;;;;30.40;91.80;;;;;;5115779;28;20263;-69
2023/12/30 02:44:03;;;;;;;;;;;30.60;89.90;;;;;;5115298;28;19908;-67
2023/12/30 02:46:30;;;;;;;;;;;30.60;88.60;;;;;;5115472;28;19912;-66
2023/12/30 02:48:57;;;;;;;;;;;30.70;90.30;;;;;;5115565;28;20421;-69
2023/12/30 02:51:24;;;;;;;;;;;30.80;88.80;;;;;;5110979;28;19970;-68
2023/12/30 02:53:51;;;;;;;;;;;31.00;89.00;;;;;;5104121;28;19916;-67
2023/12/30 02:56:25;;;;;;;;;;;31.20;86.60;;;;;;5094867;28;20353;-68
2023/12/30 02:58:58;;;;;;;;;;;31.30;89.00;;;;;;5094925;28;19915;-68
2023/12/30 03:01:27;;;;;;;;;;;31.40;89.90;;;;;;5094207;28;20013;-67
2023/12/30 03:03:57;;;;;;;;;;;31.60;90.30;;;;;;5094784;28;19919;-68
2023/12/30 03:06:24;;;;;;;;;;;31.90;91.00;;;;;;5094776;28;19908;-69
2023/12/30 03:08:51;;;;;;;;;;;32.20;89.10;;;;;;5094757;28;19916;-68
2023/12/30 03:11:18;;;;;;;;;;;32.30;87.80;;;;;;5094672;28;20380;-68
2023/12/30 03:13:45;;;;;;;;;;;33.00;90.00;;;;;;5094392;28;20363;-68
2023/12/30 03:16:13;;;;;;;;;;;33.50;86.20;;;;;;5094733;28;19923;-67
2023/12/30 03:18:40;;;;;;;;;;;33.70;86.70;;;;;;5094687;28;19994;-73
2023/12/30 03:21:08;;;;;;;;;;;34.00;87.30;;;;;;5077265;28;20309;-70
2023/12/30 03:23:34;;;;;;;;;;;34.90;85.30;;;;;;5103780;28;19916;-73
2023/12/30 03:26:01;;;;;;;;;;;35.40;82.50;;;;;;5114940;28;20284;-69
2023/12/30 03:28:28;;;;;;;;;;;35.60;81.10;;;;;;5114845;28;19992;-69
2023/12/30 03:30:55;;;;;;;;;;;36.10;81.10;;;;;;5114675;28;20280;-69
2023/12/30 03:33:22;;;;;;;;;;;36.10;80.00;;;;;;5114795;28;19911;-66
2023/12/30 03:35:49;;;;;;;;;;;36.70;80.40;;;;;;5114516;28;20020;-66
2023/12/30 03:38:15;;;;;;;;;;;37.20;77.60;;;;;;5114467;28;19907;-66
2023/12/30 03:40:42;;;;;;;;;;;37.50;77.30;;;;;;5114477;28;19915;-67
2023/12/30 03:43:08;;;;;;;;;;;37.90;74.70;;;;;;5114344;28;20356;-69
2023/12/30 03:45:35;;;;;;;;;;;37.90;73.90;;;;;;5114241;28;20372;-66
2023/12/30 03:48:02;;;;;;;;;;;38.10;74.30;;;;;;5114453;28;19908;-68
2023/12/30 03:50:28;;;;;;;;;;;38.20;73.90;;;;;;5114191;28;19961;-67
2023/12/30 03:52:55;;;;;;;;;;;38.10;74.10;;;;;;5105408;28;19911;-67
2023/12/30 03:55:22;;;;;;;;;;;38.70;74.70;;;;;;5094120;28;20336;-66
2023/12/30 03:57:48;;;;;;;;;;;38.90;73.00;;;;;;5093967;28;19912;-67
2023/12/30 04:00:15;;;;;;;;;;;38.10;72.00;;;;;;5093805;28;19995;-66
2023/12/30 04:02:41;;;;;;;;;;;37.70;73.50;;;;;;5093641;28;19958;-66
2023/12/30 04:05:08;;;;;;;;;;;37.80;73.30;;;;;;5093794;28;19915;-67
2023/12/30 04:07:36;;;;;;;;;;;38.00;74.80;;;;;;5093716;28;19915;-68
2023/12/30 04:10:03;;;;;;;;;;;38.30;71.30;;;;;;5093578;28;19912;-69
2023/12/30 04:12:31;;;;;;;;;;;38.20;73.10;;;;;;5092461;28;20007;-71
2023/12/30 04:14:57;;;;;;;;;;;39.10;70.40;;;;;;5093495;28;19909;-67
2023/12/30 04:17:24;;;;;;;;;;;38.40;72.10;;;;;;5093516;28;19928;-67
2023/12/30 04:19:51;;;;;;;;;;;39.00;70.80;;;;;;5093423;28;20352;-66
2023/12/30 04:22:17;;;;;;;;;;;39.20;70.70;;;;;;5098721;28;19912;-68
2023/12/30 04:24:44;;;;;;;;;;;39.70;69.40;;;;;;5099837;28;19912;-66
2023/12/30 04:27:10;;;;;;;;;;;38.80;71.00;;;;;;5093219;28;19912;-66
2023/12/30 04:29:37;;;;;;;;;;;38.50;69.30;;;;;;5093337;28;19977;-68
2023/12/30 04:32:04;;;;;;;;;;;38.70;70.00;;;;;;5093395;28;19958;-68
2023/12/30 04:34:30;;;;;;;;;;;38.70;69.30;;;;;;5075091;28;20004;-68
2023/12/30 04:36:57;;;;;;;;;;;38.40;70.80;;;;;;5092738;28;20010;-71
2023/12/30 04:39:24;;;;;;;;;;;37.30;71.70;;;;;;5093030;28;19909;-67
2023/12/30 04:41:50;;;;;;;;;;;37.20;71.00;;;;;;5093016;28;19916;-69
2023/12/30 04:44:17;;;;;;;;;;;37.80;70.90;;;;;;5092966;28;19915;-72
2023/12/30 04:46:44;;;;;;;;;;;38.50;70.40;;;;;;5104245;28;20382;-68
2023/12/30 04:49:11;;;;;;;;;;;38.80;69.50;;;;;;5113421;28;19907;-69
2023/12/30 04:51:38;;;;;;;;;;;38.50;69.40;;;;;;5110703;28;20012;-72
2023/12/30 04:54:05;;;;;;;;;;;38.50;71.30;;;;;;5112622;28;19920;-69
2023/12/30 04:56:32;;;;;;;;;;;38.30;70.10;;;;;;5097923;28;21020;-71
2023/12/30 04:58:59;;;;;;;;;;;38.00;71.10;;;;;;5093095;28;19908;-68
2023/12/30 05:01:26;;;;;;;;;;;39.10;69.60;;;;;;5101092;28;20272;-70
2023/12/30 05:03:53;;;;;;;;;;;40.10;67.50;;;;;;5103360;28;19915;-66
2023/12/30 05:06:21;;;;;;;;;;;39.60;67.80;;;;;;5095250;28;19908;-69
2023/12/30 05:08:48;;;;;;;;;;;39.20;70.00;;;;;;5100396;28;19973;-70
2023/12/30 05:11:15;;;;;;;;;;;39.30;69.30;;;;;;5104168;28;20006;-68
2023/12/30 05:13:44;;;;;;;;;;;38.70;70.20;;;;;;5112863;28;19908;-68
2023/12/30 05:16:11;;;;;;;;;;;37.70;70.90;;;;;;5108795;28;19959;-68
2023/12/30 05:18:37;;;;;;;;;;;36.20;72.40;;;;;;5092554;28;19908;-68
2023/12/30 05:21:04;;;;;;;;;;;35.60;73.70;;;;;;5092542;28;19908;-70
2023/12/30 05:23:34;;;;;;;;;;;35.50;73.80;;;;;;5093285;28;19923;-67
2023/12/30 05:26:00;;;;;;;;;;;34.80;74.70;;;;;;5103711;28;19909;-73
2023/12/30 05:28:27;;;;;;;;;;;34.20;76.90;;;;;;5104515;28;19919;-68
2023/12/30 05:30:53;;;;;;;;;;;33.10;78.60;;;;;;5105423;28;19912;-67
2023/12/30 05:33:20;;;;;;;;;;;32.80;77.70;;;;;;5101285;28;19947;-71
2023/12/30 05:35:47;;;;;;;;;;;32.80;78.80;;;;;;5116964;28;19919;-67
2023/12/30 05:38:13;;;;;;;;;;;33.20;78.20;;;;;;5117198;28;19995;-71
2023/12/30 05:40:40;;;;;;;;;;;33.80;78.80;;;;;;5117004;28;20006;-68
2023/12/30 05:43:06;;;;;;;;;;;33.50;78.10;;;;;;5116853;28;20344;-72
2023/12/30 05:45:34;;;;;;;;;;;32.80;79.60;;;;;;5116010;28;19912;-67
2023/12/30 05:48:02;;;;;;;;;;;32.70;79.70;;;;;;5096725;28;19905;-69
2023/12/30 05:50:29;;;;;;;;;;;32.50;79.50;;;;;;5096375;28;20357;-67
2023/12/30 05:52:56;;;;;;;;;;;32.40;80.10;;;;;;5096331;28;20352;-70
2023/12/30 05:55:22;;;;;;;;;;;32.70;79.80;;;;;;5096118;28;19928;-69
2023/12/30 05:57:49;;;;;;;;;;;32.60;79.60;;;;;;5096087;28;19916;-68
2023/12/30 06:00:16;;;;;;;;;;;32.20;81.30;;;;;;5107678;28;19908;-68
2023/12/30 06:02:43;;;;;;;;;;;31.40;83.90;;;;;;5116334;28;19914;-66
2023/12/30 06:05:10;;;;;;;;;;;30.90;85.90;;;;;;5116711;28;19914;-68
2023/12/30 06:07:38;;;;;;;;;;;29.80;87.60;;;;;;5116481;28;19908;-68
2023/12/30 06:10:06;;;;;;;;;;;29.10;89.40;;;;;;5098651;28;19908;-67
2023/12/30 06:12:32;;;;;;;;;;;28.80;90.50;;;;;;5116482;28;19908;-68
2023/12/30 06:14:59;;;;;;;;;;;28.50;90.80;;;;;;5116417;28;20280;-69
2023/12/30 06:17:25;;;;;;;;;;;28.30;90.60;;;;;;5101221;28;19963;-68
2023/12/30 06:19:52;;;;;;;;;;;27.80;91.40;;;;;;5095839;28;19953;-69
2023/12/30 06:22:19;;;;;;;;;;;27.70;91.80;;;;;;5095255;28;19914;-67
2023/12/30 06:24:46;;;;;;;;;;;27.50;92.10;;;;;;5095690;28;19930;-68
2023/12/30 06:27:12;;;;;;;;;;;27.00;92.80;;;;;;5095908;28;19930;-69
2023/12/30 06:29:39;;;;;;;;;;;26.80;93.60;;;;;;5107549;28;19954;-69
2023/12/30 06:32:06;;;;;;;;;;;26.70;93.90;;;;;;5115995;28;19915;-73
2023/12/30 06:34:34;;;;;;;;;;;26.60;93.80;;;;;;5115966;28;19945;-70
2023/12/30 06:37:01;;;;;;;;;;;26.60;94.20;;;;;;5102628;28;19927;-67
2023/12/30 06:39:27;;;;;;;;;;;26.60;93.90;;;;;;5103095;28;19947;-70
2023/12/30 06:41:58;;;;;;;;;;;26.50;94.20;;;;;;5104471;28;20394;-70
2023/12/30 06:44:25;;;;;;;;;;;26.50;94.20;;;;;;5095463;28;19949;-71
2023/12/30 06:46:52;;;;;;;;;;;26.50;93.70;;;;;;5094848;28;19908;-71
2023/12/30 06:49:19;;;;;;;;;;;26.00;94.40;;;;;;5096980;28;19918;-68
2023/12/30 06:51:46;;;;;;;;;;;25.60;95.10;;;;;;5104006;28;19915;-68
2023/12/30 06:54:13;;;;;;;;;;;25.60;95.70;;;;;;5103131;28;20367;-67
2023/12/30 06:56:40;;;;;;;;;;;25.60;95.50;;;;;;5104166;28;19927;-69
2023/12/30 06:59:07;;;;;;;;;;;25.70;95.70;;;;;;5103484;28;19939;-69
2023/12/30 07:01:37;;;;;;;;;;;25.80;95.70;;;;;;5105261;28;19964;-67
2023/12/30 07:04:04;;;;;;;;;;;25.80;95.70;;;;;;5105232;28;19912;-66
2023/12/30 07:06:30;;;;;;;;;;;25.90;96.00;;;;;;5094894;28;19915;-68
2023/12/30 07:08:57;;;;;;;;;;;25.80;95.90;;;;;;5095047;28;19934;-66
2023/12/30 07:11:23;;;;;;;;;;;25.60;95.80;;;;;;5110097;28;19998;-70
2023/12/30 07:13:50;;;;;;;;;;;25.50;96.60;;;;;;5105331;28;19912;-65
2023/12/30 07:16:17;;;;;;;;;;;25.40;96.40;;;;;;5103995;28;19916;-67
2023/12/30 07:18:43;;;;;;;;;;;25.40;96.50;;;;;;5105023;28;19912;-68
2023/12/30 07:21:10;;;;;;;;;;;25.30;96.60;;;;;;5097165;28;19908;-67
2023/12/30 07:23:37;;;;;;;;;;;25.30;96.60;;;;;;5094861;28;19912;-66
2023/12/30 07:26:03;;;;;;;;;;;25.10;97.20;;;;;;5094580;28;20305;-66
2023/12/30 07:28:30;;;;;;;;;;;25.10;97.00;;;;;;5094603;28;19908;-66
2023/12/30 07:30:57;;;;;;;;;;;25.10;97.00;;;;;;5099046;28;19957;-69
2023/12/30 07:33:23;;;;;;;;;;;25.20;96.70;;;;;;5107547;28;20045;-68
2023/12/30 07:35:50;;;;;;;;;;;25.00;96.90;;;;;;5114758;28;19911;-68
2023/12/30 07:38:16;;;;;;;;;;;24.80;97.50;;;;;;5114809;28;19912;-67
2023/12/30 07:40:43;;;;;;;;;;;24.70;97.80;;;;;;5096522;28;19914;-67
2023/12/30 07:43:10;;;;;;;;;;;24.70;98.20;;;;;;5114584;28;19908;-66
2023/12/30 07:45:36;;;;;;;;;;;24.70;98.00;;;;;;5114362;28;19930;-66
2023/12/30 07:48:03;;;;;;;;;;;24.60;98.30;;;;;;5094131;28;19908;-67
2023/12/30 07:50:30;;;;;;;;;;;24.60;98.50;;;;;;5093993;28;20319;-67
2023/12/30 07:52:56;;;;;;;;;;;24.60;98.30;;;;;;5093925;28;19912;-67
2023/12/30 07:55:24;;;;;;;;;;;24.50;98.40;;;;;;5093891;28;19973;-67
2023/12/30 07:57:50;;;;;;;;;;;24.60;98.40;;;;;;5102913;28;19970;-68
2023/12/30 08:00:17;;;;;;;;;;;24.60;98.40;;;;;;5093833;28;19931;-70
2023/12/30 08:02:44;;;;;;;;;;;24.60;98.40;;;;;;5094295;28;19916;-68
2023/12/30 08:05:11;;;;;;;;;;;24.50;98.10;;;;;;5094014;28;19912;-68
2023/12/30 08:07:37;;;;;;;;;;;24.40;98.20;;;;;;5094051;28;20007;-70
2023/12/30 08:10:04;;;;;;;;;;;24.40;98.00;;;;;;5093845;28;19953;-71
2023/12/30 08:12:30;;;;;;;;;;;24.20;98.20;;;;;;5105674;28;19912;-66
2023/12/30 08:14:57;;;;;;;;;;;24.20;98.70;;;;;;5114100;28;19915;-67
2023/12/30 08:17:24;;;;;;;;;;;24.20;98.80;;;;;;5113682;28;19920;-69
2023/12/30 08:19:50;;;;;;;;;;;24.10;99.00;;;;;;5113715;28;19908;-70
2023/12/30 08:22:18;;;;;;;;;;;24.10;99.20;;;;;;5113790;28;19912;-66
2023/12/30 08:24:45;;;;;;;;;;;24.10;98.90;;;;;;5098668;28;19919;-67
2023/12/30 08:27:11;;;;;;;;;;;24.00;98.90;;;;;;5092401;28;20426;-67
2023/12/30 08:29:38;;;;;;;;;;;24.10;99.10;;;;;;5091903;28;19908;-67
2023/12/30 08:32:06;;;;;;;;;;;23.90;99.00;;;;;;5093211;28;19966;-66
2023/12/30 08:34:33;;;;;;;;;;;23.90;99.00;;;;;;5093198;28;20344;-69
2023/12/30 08:37:05;;;;;;;;;;;23.80;98.90;;;;;;5093453;28;20341;-67
2023/12/30 08:39:32;;;;;;;;;;;23.80;99.10;;;;;;5093441;28;20353;-68
2023/12/30 08:41:58;;;;;;;;;;;23.80;99.60;;;;;;5093306;28;19908;-66
2023/12/30 08:44:26;;;;;;;;;;;23.80;99.10;;;;;;5093271;28;20353;-71
2023/12/30 08:46:53;;;;;;;;;;;23.80;99.30;;;;;;5093366;28;19908;-68
2023/12/30 08:49:20;;;;;;;;;;;23.80;99.30;;;;;;5093130;28;20369;-71
2023/12/30 08:51:47;;;;;;;;;;;23.60;99.10;;;;;;5093051;28;19944;-66
2023/12/30 08:54:14;;;;;;;;;;;23.40;99.30;;;;;;5093146;28;20410;-68
2023/12/30 08:56:40;;;;;;;;;;;23.40;99.60;;;;;;5093045;28;19916;-70
2023/12/30 08:59:07;;;;;;;;;;;23.40;99.80;;;;;;5099570;28;19912;-67
2023/12/30 09:01:34;;;;;;;;;;;23.20;99.80;;;;;;5101413;28;19916;-70
2023/12/30 09:04:00;;;;;;;;;;;23.20;99.80;;;;;;5103419;28;20254;-68
2023/12/30 09:06:27;;;;;;;;;;;23.20;99.90;;;;;;5102865;28;19908;-71
2023/12/30 09:08:53;;;;;;;;;;;23.30;99.90;;;;;;5096434;28;20053;-68
2023/12/30 09:11:21;;;;;;;;;;;23.30;99.40;;;;;;5102455;28;19912;-73
2023/12/30 09:13:48;;;;;;;;;;;23.40;99.40;;;;;;5101714;28;19915;-72
2023/12/30 09:16:14;;;;;;;;;;;23.30;99.70;;;;;;5101005;28;19915;-70
2023/12/30 09:18:42;;;;;;;;;;;23.20;99.80;;;;;;5084632;28;19908;-72
2023/12/30 09:21:08;;;;;;;;;;;23.30;99.70;;;;;;5084209;28;19916;-71
2023/12/30 09:23:35;;;;;;;;;;;23.20;99.40;;;;;;5101962;28;20299;-70
2023/12/30 09:26:02;;;;;;;;;;;23.20;99.60;;;;;;5099354;28;19908;-70
2023/12/30 09:28:29;;;;;;;;;;;23.20;99.50;;;;;;5092755;28;20262;-73
2023/12/30 09:30:55;;;;;;;;;;;23.10;99.30;;;;;;5092680;28;20373;-70
2023/12/30 09:33:22;;;;;;;;;;;23.00;99.40;;;;;;5092900;28;19955;-73
2023/12/30 09:35:54;;;;;;;;;;;23.00;99.50;;;;;;5092809;28;19909;-69
2023/12/30 09:38:24;;;;;;;;;;;23.10;99.60;;;;;;5092687;28;19964;-71
2023/12/30 09:40:51;;;;;;;;;;;23.10;99.60;;;;;;5074282;28;19908;-70
2023/12/30 09:43:22;;;;;;;;;;;23.10;99.30;;;;;;5092711;28;19909;-70
2023/12/30 09:45:54;;;;;;;;;;;23.10;99.30;;;;;;5092438;28;20337;-73
2023/12/30 09:48:21;;;;;;;;;;;23.10;99.50;;;;;;5092561;28;19916;-72
2023/12/30 09:50:49;;;;;;;;;;;23.20;99.30;;;;;;5092438;28;19936;-70
2023/12/30 09:53:16;;;;;;;;;;;23.20;99.40;;;;;;5092273;28;19912;-71
2023/12/30 09:55:46;;;;;;;;;;;23.20;99.40;;;;;;5092303;28;20384;-71
2023/12/30 09:58:13;;;;;;;;;;;23.10;99.10;;;;;;5092386;28;19916;-72
2023/12/30 10:00:43;;;;;;;;;;;23.00;98.90;;;;;;5092515;28;19909;-71
2023/12/30 10:03:11;;;;;;;;;;;22.90;98.90;;;;;;5093292;28;19962;-71
2023/12/30 10:05:38;;;;;;;;;;;22.90;99.20;;;;;;5092264;28;19908;-71
2023/12/30 10:08:05;;;;;;;;;;;23.00;98.90;;;;;;5092262;28;19998;-72
2023/12/30 10:10:35;;;;;;;;;;;22.90;99.30;;;;;;5094317;28;19915;-72
2023/12/30 10:13:02;;;;;;;;;;;22.90;99.20;;;;;;5095856;28;19939;-72
2023/12/30 10:15:28;;;;;;;;;;;22.90;99.20;;;;;;5095875;28;20327;-71
2023/12/30 10:17:55;;;;;;;;;;;22.90;98.90;;;;;;5095624;28;19927;-71
2023/12/30 10:20:23;;;;;;;;;;;22.90;99.00;;;;;;5095869;28;19973;-72
2023/12/30 10:22:50;;;;;;;;;;;22.90;99.10;;;;;;5096103;28;20384;-69
2023/12/30 10:25:17;;;;;;;;;;;22.90;99.20;;;;;;5096427;28;19909;-70
2023/12/30 10:27:48;;;;;;;;;;;22.90;99.10;;;;;;5096431;28;20326;-73
2023/12/30 10:30:20;;;;;;;;;;;22.90;98.90;;;;;;5095778;28;20338;-71
2023/12/30 10:32:47;;;;;;;;;;;22.80;99.10;;;;;;5095311;28;19915;-71
2023/12/30 10:35:14;;;;;;;;;;;22.80;99.10;;;;;;5095770;28;20033;-73
2023/12/30 10:37:42;;;;;;;;;;;22.80;98.90;;;;;;5095540;28;19916;-71
2023/12/30 10:40:12;;;;;;;;;;;22.80;98.80;;;;;;5095615;28;19908;-72
2023/12/30 10:42:40;;;;;;;;;;;22.80;99.00;;;;;;5077289;28;20387;-72
2023/12/30 10:45:08;;;;;;;;;;;22.80;99.20;;;;;;5095465;28;19908;-70
2023/12/30 10:47:38;;;;;;;;;;;22.80;99.10;;;;;;5095468;28;20000;-70
2023/12/30 10:50:05;;;;;;;;;;;22.80;99.10;;;;;;5095194;28;19912;-70
2023/12/30 10:52:32;;;;;;;;;;;22.80;99.20;;;;;;5095222;28;19908;-70
2023/12/30 10:55:02;;;;;;;;;;;22.80;99.30;;;;;;5094970;28;19942;-71
2023/12/30 10:57:31;;;;;;;;;;;22.80;99.50;;;;;;5094887;28;19919;-70
2023/12/30 10:59:59;;;;;;;;;;;22.60;99.90;;;;;;5095016;28;19915;-71
2023/12/30 11:02:26;;;;;;;;;;;22.60;99.90;;;;;;5095042;28;19912;-71
2023/12/30 11:04:54;;;;;;;;;;;22.50;99.90;;;;;;5095005;28;20374;-70
2023/12/30 11:07:21;;;;;;;;;;;22.40;99.90;;;;;;5095070;28;19995;-72
2023/12/30 11:09:48;;;;;;;;;;;22.30;99.90;;;;;;5095035;28;19912;-72
2023/12/30 11:12:15;;;;;;;;;;;22.30;99.90;;;;;;5076747;28;19953;-73
2023/12/30 11:14:42;;;;;;;;;;;22.00;99.90;;;;;;5094932;28;20003;-72
2023/12/30 11:17:09;;;;;;;;;;;21.80;99.90;;;;;;5097964;28;20010;-75
2023/12/30 11:19:36;;;;;;;;;;;21.80;99.90;;;;;;5096696;28;19958;-65
2023/12/30 11:22:06;;;;;;;;;;;21.50;99.90;;;;;;5114569;28;19951;-66
2023/12/30 11:24:34;;;;;;;;;;;21.20;99.90;;;;;;5114946;28;19907;-66
2023/12/30 11:27:00;;;;;;;;;;;21.10;99.90;;;;;;5114735;28;20326;-65
2023/12/30 11:29:28;;;;;;;;;;;20.80;99.90;;;;;;5114898;28;20337;-66
2023/12/30 11:31:56;;;;;;;;;;;20.50;99.90;;;;;;5114782;28;20265;-65
2023/12/30 11:34:24;;;;;;;;;;;20.50;99.90;;;;;;5114976;28;19907;-65
2023/12/30 11:36:52;;;;;;;;;;;20.50;99.90;;;;;;5114700;28;19977;-65
2023/12/30 11:39:23;;;;;;;;;;;20.40;99.90;;;;;;5114975;28;19908;-68
2023/12/30 11:41:52;;;;;;;;;;;20.30;99.90;;;;;;5114784;28;20232;-66
2023/12/30 11:44:19;;;;;;;;;;;20.40;99.90;;;;;;5114569;28;20276;-66
2023/12/30 11:46:48;;;;;;;;;;;20.30;99.90;;;;;;5114535;28;19907;-66
2023/12/30 11:49:24;;;;;;;;;;;20.30;99.90;;;;;;5114633;28;20273;-67
2023/12/30 11:51:53;;;;;;;;;;;20.20;99.90;;;;;;5114647;28;19921;-65
2023/12/30 11:54:21;;;;;;;;;;;20.20;99.90;;;;;;5114427;28;19920;-64
2023/12/30 11:56:48;;;;;;;;;;;20.30;99.90;;;;;;5114560;28;20027;-65
2023/12/30 11:59:14;;;;;;;;;;;20.30;99.90;;;;;;5114329;28;20288;-66
2023/12/30 12:01:41;;;;;;;;;;;20.30;99.90;;;;;;5114434;28;19908;-67
2023/12/30 12:04:08;;;;;;;;;;;20.40;99.90;;;;;;5114444;28;19908;-70
2023/12/30 12:06:34;;;;;;;;;;;20.30;99.90;;;;;;5114144;28;19930;-70
2023/12/30 12:09:04;;;;;;;;;;;20.30;99.90;;;;;;5114356;28;19911;-69
2023/12/30 12:11:30;;;;;;;;;;;20.20;99.90;;;;;;5114200;28;19911;-70
2023/12/30 12:14:01;;;;;;;;;;;20.30;99.90;;;;;;5114174;28;20407;-70
2023/12/30 12:16:31;;;;;;;;;;;20.20;99.90;;;;;;5113966;28;20045;-69
2023/12/30 12:19:00;;;;;;;;;;;20.00;99.90;;;;;;5113827;28;19941;-67
2023/12/30 12:21:27;;;;;;;;;;;20.00;99.90;;;;;;5113654;28;19915;-69
2023/12/30 12:23:54;;;;;;;;;;;19.90;99.90;;;;;;5095597;28;20288;-71
2023/12/30 12:26:22;;;;;;;;;;;19.90;99.90;;;;;;5113920;28;19953;-69
2023/12/30 12:28:49;;;;;;;;;;;20.00;99.90;;;;;;5113906;28;19908;-69
2023/12/30 12:31:17;;;;;;;;;;;20.00;99.90;;;;;;5113659;28;19953;-69
2023/12/30 12:33:44;;;;;;;;;;;20.00;99.90;;;;;;5112783;28;19953;-68
2023/12/30 12:36:10;;;;;;;;;;;19.80;99.90;;;;;;5113582;28;19955;-69
2023/12/30 12:38:37;;;;;;;;;;;19.90;99.90;;;;;;5113681;28;19908;-68
2023/12/30 12:41:03;;;;;;;;;;;19.80;99.90;;;;;;5113756;28;19914;-71
2023/12/30 12:43:30;;;;;;;;;;;19.70;99.90;;;;;;5113692;28;19957;-71
2023/12/30 12:45:57;;;;;;;;;;;19.70;99.90;;;;;;5113549;28;19908;-68
2023/12/30 12:48:24;;;;;;;;;;;19.50;99.90;;;;;;5113268;28;19969;-71
2023/12/30 12:50:55;;;;;;;;;;;19.60;99.90;;;;;;5113617;28;19915;-69
2023/12/30 12:53:23;;;;;;;;;;;19.60;99.90;;;;;;5113669;28;20253;-70
2023/12/30 12:55:49;;;;;;;;;;;19.70;99.90;;;;;;5113144;28;19919;-73
2023/12/30 12:58:16;;;;;;;;;;;19.80;99.90;;;;;;5113484;28;20288;-67
2023/12/30 13:00:43;;;;;;;;;;;19.70;99.90;;;;;;5113362;28;20435;-69
2023/12/30 13:03:10;;;;;;;;;;;19.70;99.90;;;;;;5113333;28;20356;-68
2023/12/30 13:05:37;;;;;;;;;;;19.70;99.90;;;;;;5113302;28;19915;-69
2023/12/30 13:08:04;;;;;;;;;;;19.60;99.90;;;;;;5113298;28;20380;-71
2023/12/30 13:13:00;;;;;;;;;;;19.60;99.90;;;;;;5113279;28;19912;-69
2023/12/30 13:15:26;;;;;;;;;;;19.70;99.90;;;;;;5113214;28;19965;-67
2023/12/30 13:17:53;;;;;;;;;;;19.60;99.90;;;;;;5112979;28;20336;-67
2023/12/30 13:20:20;;;;;;;;;;;19.50;99.90;;;;;;5113029;28;19908;-69
2023/12/30 13:22:53;;;;;;;;;;;19.30;99.90;;;;;;5113256;28;19953;-75
2023/12/30 13:25:19;;;;;;;;;;;19.20;99.90;;;;;;5113018;28;19953;-70
2023/12/30 13:27:46;;;;;;;;;;;19.10;99.90;;;;;;5113081;28;19961;-68
2023/12/30 13:30:13;;;;;;;;;;;19.10;99.90;;;;;;5094624;28;19908;-74
2023/12/30 13:32:41;;;;;;;;;;;19.20;99.90;;;;;;5113123;28;19912;-71
2023/12/30 13:35:08;;;;;;;;;;;19.30;99.90;;;;;;5113099;28;19915;-73
2023/12/30 13:37:39;;;;;;;;;;;19.30;99.90;;;;;;5112945;28;20014;-68
2023/12/30 13:40:10;;;;;;;;;;;19.30;99.90;;;;;;5112679;28;19908;-70
2023/12/30 13:42:37;;;;;;;;;;;19.20;99.90;;;;;;5112655;28;19954;-69
2023/12/30 13:45:06;;;;;;;;;;;19.10;99.90;;;;;;5114360;28;19908;-71
2023/12/30 13:52:38;;;;;;;;;;;18.90;99.90;;;;;;5117062;28;19908;-72
2023/12/30 13:55:12;;;;;;;;;;;18.90;99.90;;;;;;5116762;28;19955;-69
2023/12/30 13:57:40;;;;;;;;;;;18.90;99.90;;;;;;5116613;28;19988;-69
2023/12/30 14:00:07;;;;;;;;;;;18.90;99.90;;;;;;5116659;28;19908;-68
2023/12/30 14:02:40;;;;;;;;;;;19.00;99.90;;;;;;5116583;28;19908;-69
2023/12/30 14:05:17;;;;;;;;;;;19.00;99.90;;;;;;5116486;28;19914;-73
2023/12/30 14:07:44;;;;;;;;;;;19.10;99.90;;;;;;5116481;28;20268;-70
2023/12/30 14:10:12;;;;;;;;;;;19.00;99.90;;;;;;5116746;28;19911;-71
2023/12/30 14:12:42;;;;;;;;;;;19.10;99.90;;;;;;5116947;28;19915;-73
2023/12/30 14:15:13;;;;;;;;;;;19.00;99.90;;;;;;5116630;28;19908;-73
2023/12/30 14:17:42;;;;;;;;;;;19.10;99.90;;;;;;5116985;28;19924;-75
2023/12/30 14:20:10;;;;;;;;;;;19.20;99.90;;;;;;5116997;28;19999;-69
2023/12/30 14:22:37;;;;;;;;;;;19.20;99.90;;;;;;5116242;28;20022;-70
2023/12/30 14:25:11;;;;;;;;;;;19.10;99.90;;;;;;5116120;28;19911;-70